Time;durP1;ratioP1;P1;durP2;ratioP2;P2;SDS_P1;SDS_P2;PMS_P1;PMS_P2;Temp;Humidity;BMP_temperature;BMP_pressure;BME280_temperature;BME280_humidity;BME280_pressure;Samples;Min_cycle;Max_cycle;Signal;HPM_P1;HPM_P2
2022/04/18 00:01:51;;;;;;;;;;;;;;;7.38;47.88;97281.06;6370910;28;19923;-64
2022/04/18 00:04:55;;;;;;;;;;;;;;;7.40;47.83;97279.22;6369858;28;19929;-64
2022/04/18 00:07:56;;;;;;;;;;;;;;;7.44;47.81;97280.75;6371026;28;20050;-64
2022/04/18 00:10:57;;;;;;;;;;;;;;;7.45;47.68;97282.47;6370153;28;19950;-64
2022/04/18 00:14:01;;;;;;;;;;;;;;;7.48;47.26;97271.88;6371153;28;20306;-65
2022/04/18 00:17:09;;;;;;;;;;;;;;;7.51;47.66;97283.97;6371139;28;19927;-64
2022/04/18 00:20:13;;;;;;;;;;;;;;;7.53;47.30;97276.88;6372793;27;19923;-64
2022/04/18 00:23:16;;;;;;;;;;;;;;;7.56;47.59;97275.00;6375677;27;19923;-63
2022/04/18 00:26:20;;;;;;;;;;;;;;;7.61;47.82;97262.53;6374527;27;19930;-65
2022/04/18 00:29:21;;;;;;;;;;;;;;;7.61;48.11;97261.66;6374696;27;20292;-65
2022/04/18 00:32:22;;;;;;;;;;;;;;;7.58;48.73;97254.78;6374812;27;19946;-64
2022/04/18 00:35:24;;;;;;;;;;;;;;;7.52;48.53;97256.84;6374546;27;19926;-64
2022/04/18 00:38:28;;;;;;;;;;;;;;;7.54;48.72;97261.09;6374988;27;19923;-64
2022/04/18 00:41:31;;;;;;;;;;;;;;;7.52;49.18;97270.78;6374022;27;19919;-64
2022/04/18 00:44:33;;;;;;;;;;;;;;;7.53;49.44;97266.41;6374207;27;19927;-64
2022/04/18 00:47:36;;;;;;;;;;;;;;;7.53;49.48;97269.91;6374988;27;20334;-64
2022/04/18 00:50:41;;;;;;;;;;;;;;;7.50;49.18;97272.66;6374577;27;20412;-64
2022/04/18 00:53:42;;;;;;;;;;;;;;;7.47;49.59;97267.53;6374152;27;19923;-65
2022/04/18 00:56:48;;;;;;;;;;;;;;;7.35;50.46;97270.72;6374187;27;19930;-63
2022/04/18 00:59:49;;;;;;;;;;;;;;;7.16;51.43;97266.34;6373938;27;19923;-63
2022/04/18 01:02:51;;;;;;;;;;;;;;;7.05;51.87;97258.13;6373651;27;19930;-64
2022/04/18 01:05:52;;;;;;;;;;;;;;;7.04;52.46;97266.88;6373328;27;19929;-64
2022/04/18 01:08:54;;;;;;;;;;;;;;;6.98;52.84;97251.44;6373300;27;20296;-64
2022/04/18 01:11:55;;;;;;;;;;;;;;;7.02;53.39;97254.75;6373755;27;19930;-64
2022/04/18 01:14:56;;;;;;;;;;;;;;;7.02;53.49;97242.56;6374337;27;20007;-64
2022/04/18 01:17:57;;;;;;;;;;;;;;;7.00;53.52;97240.91;6373430;27;19924;-64
2022/04/18 01:20:58;;;;;;;;;;;;;;;6.99;54.43;97242.66;6373337;27;19919;-64
2022/04/18 01:28:58;;;;;;;;;;;;;;;6.95;54.14;97238.50;6374048;27;20346;-64
2022/04/18 01:30:44;;;;;;;;;;;;;;;6.95;54.40;97234.09;6373605;27;19923;-64
2022/04/18 01:33:45;;;;;;;;;;;;;;;7.03;54.75;97232.94;6372833;27;19930;-64
2022/04/18 01:36:49;;;;;;;;;;;;;;;6.95;54.52;97235.88;6373883;27;19923;-64
2022/04/18 01:39:52;;;;;;;;;;;;;;;6.99;54.86;97237.44;6373822;27;20022;-63
2022/04/18 01:42:53;;;;;;;;;;;;;;;7.03;55.46;97236.41;6373149;27;19927;-65
2022/04/18 01:45:54;;;;;;;;;;;;;;;6.94;55.54;97234.19;6372596;27;19929;-64
2022/04/18 01:48:55;;;;;;;;;;;;;;;6.90;55.38;97232.63;6372657;27;19923;-64
2022/04/18 01:51:56;;;;;;;;;;;;;;;6.94;55.30;97226.34;6371889;27;19923;-64
2022/04/18 01:54:57;;;;;;;;;;;;;;;7.06;56.27;97233.63;6372618;27;20002;-64
2022/04/18 01:58:00;;;;;;;;;;;;;;;7.04;55.98;97227.63;6354991;27;20350;-64
2022/04/18 02:01:02;;;;;;;;;;;;;;;7.03;56.02;97218.06;6372583;27;19915;-64
2022/04/18 02:04:05;;;;;;;;;;;;;;;6.98;56.15;97210.44;6372246;27;19930;-64
2022/04/18 02:07:10;;;;;;;;;;;;;;;7.00;56.93;97215.59;6372421;27;19923;-64
2022/04/18 02:10:11;;;;;;;;;;;;;;;6.89;57.63;97210.00;6372260;27;20311;-65
2022/04/18 02:13:14;;;;;;;;;;;;;;;6.71;58.48;97202.06;6372098;27;19923;-64
2022/04/18 02:16:15;;;;;;;;;;;;;;;6.68;59.08;97207.44;6371958;27;20309;-63
2022/04/18 02:19:20;;;;;;;;;;;;;;;6.61;59.76;97221.66;6372558;27;19924;-64
2022/04/18 02:22:24;;;;;;;;;;;;;;;6.63;59.17;97214.63;6371647;27;20384;-64
2022/04/18 02:25:25;;;;;;;;;;;;;;;6.69;58.67;97214.34;6372291;27;19930;-65
2022/04/18 02:28:26;;;;;;;;;;;;;;;6.92;57.75;97226.41;6353549;27;20076;-64
2022/04/18 02:31:31;;;;;;;;;;;;;;;7.15;57.30;97238.44;6372182;27;19923;-64
2022/04/18 02:34:55;;;;;;;;;;;;;;;7.50;57.68;97243.84;6372122;27;20427;-63
2022/04/18 02:37:56;;;;;;;;;;;;;;;7.62;56.45;97238.03;6371506;27;19927;-64
2022/04/18 02:40:57;;;;;;;;;;;;;;;7.47;56.74;97228.25;6371452;27;19924;-64
2022/04/18 02:43:58;;;;;;;;;;;;;;;7.33;56.79;97239.41;6370954;27;19923;-64
2022/04/18 02:46:59;;;;;;;;;;;;;;;7.19;57.10;97232.16;6370689;27;19923;-64
2022/04/18 02:50:00;;;;;;;;;;;;;;;7.22;56.98;97232.94;6370802;27;20444;-64
2022/04/18 02:53:07;;;;;;;;;;;;;;;7.38;56.45;97233.94;6371799;27;19941;-65
2022/04/18 02:56:10;;;;;;;;;;;;;;;7.72;55.81;97242.81;6352879;27;19926;-65
2022/04/18 02:59:11;;;;;;;;;;;;;;;8.14;54.68;97244.31;6371681;27;19930;-64
2022/04/18 03:02:17;;;;;;;;;;;;;;;8.60;53.51;97247.28;6370528;27;19930;-64
2022/04/18 03:05:18;;;;;;;;;;;;;;;8.93;52.91;97244.69;6344502;28;19927;-64
2022/04/18 03:08:21;;;;;;;;;;;;;;;9.15;52.59;97245.25;6345108;28;19924;-63
2022/04/18 03:11:25;;;;;;;;;;;;;;;9.18;52.38;97244.25;6346235;28;19923;-64
2022/04/18 03:14:29;;;;;;;;;;;;;;;9.17;52.58;97253.03;6345594;28;19920;-64
2022/04/18 03:17:34;;;;;;;;;;;;;;;9.08;52.50;97250.91;6345939;28;20304;-64
2022/04/18 03:20:38;;;;;;;;;;;;;;;9.18;52.26;97252.13;6345492;28;19923;-63
2022/04/18 03:23:39;;;;;;;;;;;;;;;9.25;52.09;97266.59;6345785;28;19928;-64
2022/04/18 03:26:44;;;;;;;;;;;;;;;9.54;51.59;97266.81;6345808;28;19934;-64
2022/04/18 03:29:48;;;;;;;;;;;;;;;9.78;51.00;97264.63;6345721;28;20496;-64
2022/04/18 03:32:51;;;;;;;;;;;;;;;10.06;50.48;97266.56;6345619;28;20329;-64
2022/04/18 03:42:32;;;;;;;;;;;;;;;11.50;47.69;97289.66;6345132;28;20324;-65
2022/04/18 03:45:35;;;;;;;;;;;;;;;11.43;47.89;97285.69;6345602;28;19923;-65
2022/04/18 03:48:39;;;;;;;;;;;;;;;11.54;47.91;97288.50;6345525;28;20464;-65
2022/04/18 03:51:43;;;;;;;;;;;;;;;11.73;47.40;97276.84;6345577;28;19923;-64
2022/04/18 03:54:46;;;;;;;;;;;;;;;11.79;47.49;97265.91;6346842;28;20428;-64
2022/04/18 03:57:47;;;;;;;;;;;;;;;11.79;47.24;97277.28;6350148;28;19924;-64
2022/04/18 04:00:48;;;;;;;;;;;;;;;11.85;47.39;97270.78;6350026;28;20342;-65
2022/04/18 04:03:50;;;;;;;;;;;;;;;12.04;46.89;97287.16;6350078;27;19985;-65
2022/04/18 04:06:53;;;;;;;;;;;;;;;12.14;46.99;97287.41;6375978;27;19923;-65
2022/04/18 04:09:54;;;;;;;;;;;;;;;12.22;46.83;97289.56;6375009;27;19923;-65
2022/04/18 04:12:58;;;;;;;;;;;;;;;12.20;46.76;97286.16;6375737;27;20384;-64
2022/04/18 04:15:59;;;;;;;;;;;;;;;12.16;46.98;97287.31;6357337;27;19923;-66
2022/04/18 04:19:00;;;;;;;;;;;;;;;12.31;46.82;97288.94;6374498;27;19923;-64
2022/04/18 04:22:03;;;;;;;;;;;;;;;12.71;46.29;97299.50;6375226;27;20400;-64
2022/04/18 04:25:04;;;;;;;;;;;;;;;12.99;45.70;97296.72;6374936;27;19923;-65
2022/04/18 04:28:05;;;;;;;;;;;;;;;13.07;45.36;97308.56;6373949;27;20421;-65
2022/04/18 04:31:07;;;;;;;;;;;;;;;13.27;45.22;97321.28;6374725;27;19930;-65
2022/04/18 04:34:12;;;;;;;;;;;;;;;13.33;44.65;97325.31;6375236;27;19923;-65
2022/04/18 04:37:16;;;;;;;;;;;;;;;13.33;44.63;97326.13;6375110;27;19930;-65
2022/04/18 04:40:17;;;;;;;;;;;;;;;13.66;43.49;97338.81;6374361;27;19930;-64
2022/04/18 04:43:19;;;;;;;;;;;;;;;13.75;42.53;97332.03;6373802;27;19928;-64
2022/04/18 04:46:22;;;;;;;;;;;;;;;13.46;43.14;97327.00;6374909;27;19976;-65
2022/04/18 04:49:23;;;;;;;;;;;;;;;13.36;42.95;97333.03;6373611;27;19928;-64
2022/04/18 04:52:24;;;;;;;;;;;;;;;13.33;42.29;97323.50;6373741;27;19923;-64
2022/04/18 04:55:25;;;;;;;;;;;;;;;13.43;41.89;97337.78;6374039;27;19931;-64
2022/04/18 04:58:27;;;;;;;;;;;;;;;13.75;41.58;97329.41;6373463;27;19923;-64
2022/04/18 05:01:30;;;;;;;;;;;;;;;14.61;39.64;97323.25;6373307;27;19930;-64
2022/04/18 05:04:34;;;;;;;;;;;;;;;15.00;39.32;97327.38;6374350;27;20059;-65
2022/04/18 05:07:35;;;;;;;;;;;;;;;15.17;39.31;97349.09;6373377;27;19930;-64
2022/04/18 05:10:38;;;;;;;;;;;;;;;15.04;39.66;97352.69;6355154;27;20028;-65
2022/04/18 05:13:39;;;;;;;;;;;;;;;14.92;40.22;97344.78;6373435;27;19923;-64
2022/04/18 05:16:43;;;;;;;;;;;;;;;14.99;40.30;97335.44;6374023;27;19927;-64
2022/04/18 05:19:47;;;;;;;;;;;;;;;15.18;39.64;97335.72;6374127;27;20383;-64
2022/04/18 05:22:50;;;;;;;;;;;;;;;15.56;39.42;97328.44;6355168;27;19923;-65
2022/04/18 05:25:51;;;;;;;;;;;;;;;17.08;36.65;97340.16;6373061;27;19923;-64
2022/04/18 05:28:52;;;;;;;;;;;;;;;18.01;34.82;97341.97;6372750;27;19924;-65
2022/04/18 05:31:55;;;;;;;;;;;;;;;17.34;35.36;97338.78;6372939;27;20021;-64
2022/04/18 05:34:56;;;;;;;;;;;;;;;16.53;36.44;97335.75;6372876;27;19926;-65
2022/04/18 05:38:01;;;;;;;;;;;;;;;15.85;37.82;97336.78;6373611;27;19932;-64
2022/04/18 05:41:05;;;;;;;;;;;;;;;15.68;38.37;97338.13;6373687;27;19924;-64
2022/04/18 05:44:08;;;;;;;;;;;;;;;15.95;37.76;97345.72;6373538;27;20027;-64
2022/04/18 05:47:11;;;;;;;;;;;;;;;16.39;37.23;97338.69;6372632;27;19962;-65
2022/04/18 05:50:13;;;;;;;;;;;;;;;17.94;34.52;97331.84;6372456;27;19923;-65
2022/04/18 05:53:16;;;;;;;;;;;;;;;21.75;30.40;97341.16;6372616;27;19930;-65
2022/04/18 05:56:18;;;;;;;;;;;;;;;26.50;25.19;97345.13;6372306;27;19927;-65
2022/04/18 05:59:19;;;;;;;;;;;;;;;30.37;20.16;97339.59;6372955;27;19960;-65
2022/04/18 06:02:22;;;;;;;;;;;;;;;32.69;20.59;97347.09;6372396;27;20346;-65
2022/04/18 06:05:26;;;;;;;;;;;;;;;34.15;19.63;97342.19;6372507;27;19924;-64
2022/04/18 06:08:29;;;;;;;;;;;;;;;36.48;17.99;97345.06;6373013;27;20400;-65
2022/04/18 06:11:33;;;;;;;;;;;;;;;38.30;14.87;97351.81;6372076;27;19923;-65
2022/04/18 06:14:36;;;;;;;;;;;;;;;38.85;12.13;97344.97;6372479;27;20010;-66
2022/04/18 06:17:40;;;;;;;;;;;;;;;39.00;12.71;97340.63;6371777;27;20446;-65
2022/04/18 06:20:45;;;;;;;;;;;;;;;40.66;11.92;97346.72;6353206;27;20163;-66
2022/04/18 06:23:46;;;;;;;;;;;;;;;40.90;11.14;97347.69;6371634;27;19924;-64
2022/04/18 06:26:51;;;;;;;;;;;;;;;40.87;9.31;97345.50;6372444;27;19969;-65
2022/04/18 06:29:56;;;;;;;;;;;;;;;40.16;9.82;97341.81;6372247;27;20010;-65
2022/04/18 06:32:57;;;;;;;;;;;;;;;39.41;10.02;97338.00;6371217;27;19934;-65
2022/04/18 06:36:01;;;;;;;;;;;;;;;39.03;10.15;97329.09;6371325;27;19924;-65
2022/04/18 06:39:03;;;;;;;;;;;;;;;39.66;10.56;97327.00;6370542;27;19923;-65
2022/04/18 06:42:04;;;;;;;;;;;;;;;41.06;9.52;97329.97;6371035;27;19935;-65
2022/04/18 06:45:08;;;;;;;;;;;;;;;42.39;8.54;97328.91;6371141;27;19985;-65
2022/04/18 06:48:12;;;;;;;;;;;;;;;43.75;7.18;97330.38;6371007;27;19972;-65
2022/04/18 06:51:13;;;;;;;;;;;;;;;44.48;7.83;97326.84;6370761;27;19923;-66
2022/04/18 06:54:17;;;;;;;;;;;;;;;45.09;8.14;97321.13;6352918;27;19923;-65
2022/04/18 06:57:23;;;;;;;;;;;;;;;46.19;6.66;97317.88;6371775;27;19934;-65
2022/04/18 07:00:24;;;;;;;;;;;;;;;45.10;6.63;97322.75;6371098;27;20304;-66
2022/04/18 07:03:30;;;;;;;;;;;;;;;43.91;7.89;97309.59;6370634;27;20300;-65
2022/04/18 07:06:31;;;;;;;;;;;;;;;44.93;6.25;97313.16;6370731;27;19924;-65
2022/04/18 07:09:35;;;;;;;;;;;;;;;45.09;7.40;97304.47;6371550;27;20015;-65
2022/04/18 07:12:40;;;;;;;;;;;;;;;45.65;6.36;97315.09;6371583;27;19923;-65
2022/04/18 07:15:43;;;;;;;;;;;;;;;44.97;6.27;97307.78;6371554;27;19923;-65
2022/04/18 07:18:50;;;;;;;;;;;;;;;45.54;7.17;97307.34;6371471;28;19923;-66
2022/04/18 07:21:55;;;;;;;;;;;;;;;46.68;5.38;97307.59;6371596;28;19927;-65
2022/04/18 07:24:59;;;;;;;;;;;;;;;46.75;5.11;97299.63;6370531;28;19919;-65
2022/04/18 07:28:03;;;;;;;;;;;;;;;45.48;5.92;97293.53;6370431;27;19923;-66
2022/04/18 07:31:06;;;;;;;;;;;;;;;46.46;6.35;97296.53;6375936;27;19919;-65
2022/04/18 07:34:10;;;;;;;;;;;;;;;47.59;5.91;97289.19;6376589;27;19923;-65
2022/04/18 07:37:14;;;;;;;;;;;;;;;48.65;4.09;97296.09;6376671;27;19919;-65
2022/04/18 07:40:17;;;;;;;;;;;;;;;45.97;5.47;97290.13;6376543;27;20304;-65
2022/04/18 07:43:23;;;;;;;;;;;;;;;45.24;5.97;97277.19;6375820;27;19923;-66
2022/04/18 07:46:25;;;;;;;;;;;;;;;46.39;5.17;97288.69;6375724;27;19930;-65
2022/04/18 07:49:28;;;;;;;;;;;;;;;45.95;5.75;97286.81;6376229;27;19924;-66
2022/04/18 07:52:32;;;;;;;;;;;;;;;45.87;5.57;97275.31;6375989;27;20272;-65
2022/04/18 07:55:35;;;;;;;;;;;;;;;44.17;6.22;97270.31;6375783;27;19924;-66
2022/04/18 07:58:36;;;;;;;;;;;;;;;41.33;7.52;97256.88;6374945;27;19924;-65
2022/04/18 08:01:41;;;;;;;;;;;;;;;39.91;8.37;97250.94;6376009;27;19923;-65
2022/04/18 08:04:44;;;;;;;;;;;;;;;40.15;7.96;97257.50;6374907;27;20396;-65
2022/04/18 08:07:48;;;;;;;;;;;;;;;39.51;8.32;97247.94;6375682;27;19931;-65
2022/04/18 08:10:50;;;;;;;;;;;;;;;40.84;7.40;97252.25;6375458;27;19961;-66
2022/04/18 08:13:53;;;;;;;;;;;;;;;41.04;7.20;97257.63;6374609;27;19923;-67
2022/04/18 08:16:57;;;;;;;;;;;;;;;39.46;7.74;97242.47;6375214;27;19981;-65
2022/04/18 08:20:03;;;;;;;;;;;;;;;38.59;8.84;97230.47;6357458;27;20288;-65
2022/04/18 08:23:04;;;;;;;;;;;;;;;40.88;7.50;97245.06;6374281;27;19924;-65
2022/04/18 08:26:08;;;;;;;;;;;;;;;39.40;7.81;97245.47;6375220;27;19919;-65
2022/04/18 08:29:14;;;;;;;;;;;;;;;34.85;9.73;97218.22;6375284;27;20318;-65
2022/04/18 08:32:16;;;;;;;;;;;;;;;33.54;10.82;97215.19;6374203;27;20006;-65
2022/04/18 08:35:19;;;;;;;;;;;;;;;37.71;8.75;97229.22;6375032;27;19923;-65
2022/04/18 08:38:20;;;;;;;;;;;;;;;40.37;7.54;97237.00;6373982;27;20415;-65
2022/04/18 08:41:24;;;;;;;;;;;;;;;41.16;7.21;97237.16;6373676;27;19931;-65
2022/04/18 08:44:27;;;;;;;;;;;;;;;41.28;6.67;97241.19;6375231;27;19923;-65
2022/04/18 08:54:12;;;;;;;;;;;;;;;35.18;10.19;97226.72;6373562;27;19942;-65
2022/04/18 08:57:13;;;;;;;;;;;;;;;36.73;9.33;97229.44;6373230;27;19935;-65
2022/04/18 09:00:15;;;;;;;;;;;;;;;38.29;8.08;97233.91;6373807;27;19927;-64
2022/04/18 09:03:19;;;;;;;;;;;;;;;34.38;10.21;97223.84;6373231;27;20285;-65
2022/04/18 09:06:24;;;;;;;;;;;;;;;30.18;12.91;97211.06;6373838;27;20022;-65
2022/04/18 09:09:28;;;;;;;;;;;;;;;27.86;14.80;97209.03;6373727;27;19946;-66
2022/04/18 09:12:32;;;;;;;;;;;;;;;25.67;16.61;97204.19;6373369;27;19925;-65
2022/04/18 09:15:34;;;;;;;;;;;;;;;24.91;17.05;97201.59;6373544;27;19923;-65
2022/04/18 09:18:36;;;;;;;;;;;;;;;25.12;17.31;97205.44;6373226;27;20005;-65
2022/04/18 09:21:55;;;;;;;;;;;;;;;25.13;17.41;97209.78;6372956;27;19923;-65
2022/04/18 09:24:58;;;;;;;;;;;;;;;24.28;17.30;97198.13;6373910;27;20469;-65
2022/04/18 09:28:00;;;;;;;;;;;;;;;25.06;16.97;97197.06;6372979;27;19923;-64
2022/04/18 09:31:05;;;;;;;;;;;;;;;25.29;16.99;97197.03;6374047;27;19924;-65
2022/04/18 09:34:07;;;;;;;;;;;;;;;25.01;17.27;97204.84;6373000;27;19924;-65
2022/04/18 09:37:17;;;;;;;;;;;;;;;25.14;16.89;97198.88;6372664;27;19927;-65
2022/04/18 09:40:22;;;;;;;;;;;;;;;25.05;17.22;97199.91;6372522;27;19923;-65
2022/04/18 09:43:36;;;;;;;;;;;;;;;24.69;17.53;97205.13;6373462;27;20300;-64
2022/04/18 09:46:37;;;;;;;;;;;;;;;24.38;17.81;97208.69;6354152;27;20030;-65
2022/04/18 09:49:38;;;;;;;;;;;;;;;24.12;18.40;97200.94;6372544;27;19923;-65
2022/04/18 09:52:40;;;;;;;;;;;;;;;23.72;18.57;97198.28;6372542;27;20388;-66
2022/04/18 09:55:45;;;;;;;;;;;;;;;23.41;18.46;97205.38;6372351;27;20079;-65
2022/04/18 09:58:49;;;;;;;;;;;;;;;23.58;18.52;97190.06;6372905;27;19919;-65
2022/04/18 10:01:50;;;;;;;;;;;;;;;24.17;18.20;97196.69;6371943;27;19924;-65
2022/04/18 10:04:58;;;;;;;;;;;;;;;23.87;18.67;97205.59;6372675;27;19923;-65
2022/04/18 10:08:03;;;;;;;;;;;;;;;23.80;18.71;97200.06;6353991;27;19923;-65
2022/04/18 10:11:07;;;;;;;;;;;;;;;23.62;18.77;97194.91;6372263;27;19931;-65
2022/04/18 10:14:08;;;;;;;;;;;;;;;23.56;19.20;97192.94;6372139;27;19946;-64
2022/04/18 10:17:11;;;;;;;;;;;;;;;23.12;19.42;97195.22;6371851;27;19930;-66
2022/04/18 10:20:18;;;;;;;;;;;;;;;22.97;19.51;97192.41;6353418;27;19923;-65
2022/04/18 10:23:37;;;;;;;;;;;;;;;22.52;19.94;97196.41;6372636;27;19924;-65
2022/04/18 10:26:57;;;;;;;;;;;;;;;21.91;20.37;97201.94;6353192;27;20004;-66
2022/04/18 10:30:02;;;;;;;;;;;;;;;22.39;20.52;97205.78;6354361;27;19923;-65
2022/04/18 10:33:08;;;;;;;;;;;;;;;23.25;20.72;97211.66;6372218;27;19923;-66
2022/04/18 10:36:10;;;;;;;;;;;;;;;22.80;22.00;97211.16;6371373;27;19929;-64
2022/04/18 10:39:11;;;;;;;;;;;;;;;21.53;23.39;97212.16;6371165;27;20004;-64
2022/04/18 10:42:18;;;;;;;;;;;;;;;20.53;24.40;97221.47;6371126;27;20423;-65
2022/04/18 10:45:24;;;;;;;;;;;;;;;20.04;25.04;97215.59;6372027;27;20087;-65
2022/04/18 10:48:35;;;;;;;;;;;;;;;19.87;25.67;97211.91;6370990;27;19930;-65
2022/04/18 10:51:40;;;;;;;;;;;;;;;19.61;26.04;97218.88;6372175;27;19923;-65
2022/04/18 10:54:58;;;;;;;;;;;;;;;19.42;25.93;97225.13;6370907;27;19923;-65
2022/04/18 10:58:28;;;;;;;;;;;;;;;19.47;25.47;97222.88;6371658;27;20343;-65
2022/04/18 11:01:38;;;;;;;;;;;;;;;19.67;25.22;97229.00;6351308;27;19923;-65
2022/04/18 11:04:39;;;;;;;;;;;;;;;19.47;25.07;97230.88;6369910;27;19959;-65
2022/04/18 11:07:44;;;;;;;;;;;;;;;19.28;25.81;97229.13;6370435;27;19930;-65
2022/04/18 11:10:47;;;;;;;;;;;;;;;19.03;25.77;97225.25;6370675;27;20308;-64
2022/04/18 11:13:49;;;;;;;;;;;;;;;19.05;25.80;97223.28;6371262;27;19930;-65
2022/04/18 11:16:54;;;;;;;;;;;;;;;18.92;26.00;97226.25;6370575;27;19923;-65
2022/04/18 11:19:55;;;;;;;;;;;;;;;19.03;25.88;97219.94;6370436;28;20289;-65
2022/04/18 11:23:17;;;;;;;;;;;;;;;19.46;25.78;97231.88;6371256;28;19923;-65
2022/04/18 11:26:21;;;;;;;;;;;;;;;19.64;25.42;97224.75;6371504;28;20068;-65
2022/04/18 11:29:22;;;;;;;;;;;;;;;19.52;25.36;97217.94;6371513;28;19929;-65
2022/04/18 11:32:33;;;;;;;;;;;;;;;19.27;25.57;97222.94;6371273;28;19923;-65
2022/04/18 11:35:36;;;;;;;;;;;;;;;19.43;25.13;97226.84;6371182;28;20368;-65
2022/04/18 11:38:37;;;;;;;;;;;;;;;19.72;24.53;97216.88;6370523;28;19923;-65
2022/04/18 11:41:38;;;;;;;;;;;;;;;19.90;24.44;97221.44;6371180;28;19923;-65
2022/04/18 11:44:44;;;;;;;;;;;;;;;19.90;24.50;97224.09;6371031;28;20350;-65
2022/04/18 11:47:47;;;;;;;;;;;;;;;19.79;25.20;97222.50;6370120;28;19931;-64
2022/04/18 11:50:51;;;;;;;;;;;;;;;19.46;25.00;97218.53;6370278;28;20064;-65
2022/04/18 11:54:00;;;;;;;;;;;;;;;19.27;25.40;97219.44;6371033;28;19923;-65
2022/04/18 11:57:03;;;;;;;;;;;;;;;19.18;26.29;97206.97;6370708;28;20015;-65
2022/04/18 12:00:05;;;;;;;;;;;;;;;19.11;25.57;97212.06;6370019;28;20403;-65
2022/04/18 12:06:49;;;;;;;;;;;;;;;18.92;25.79;97202.25;6370726;28;20012;-65
2022/04/18 12:09:50;;;;;;;;;;;;;;;18.77;26.11;97215.22;6369699;28;19923;-65
2022/04/18 12:12:52;;;;;;;;;;;;;;;18.66;26.42;97207.31;6370516;28;19924;-65
2022/04/18 12:15:59;;;;;;;;;;;;;;;18.56;26.33;97203.81;6372087;27;19949;-65
2022/04/18 12:19:05;;;;;;;;;;;;;;;18.52;26.75;97205.09;6375493;27;19972;-65
2022/04/18 12:22:06;;;;;;;;;;;;;;;18.52;26.51;97205.09;6374285;27;19930;-65
2022/04/18 12:25:07;;;;;;;;;;;;;;;18.52;26.74;97197.94;6374144;27;19923;-64
2022/04/18 12:28:10;;;;;;;;;;;;;;;18.44;26.77;97203.13;6374276;27;19930;-65
2022/04/18 12:31:11;;;;;;;;;;;;;;;18.45;26.95;97203.97;6373976;27;19927;-65
2022/04/18 12:34:16;;;;;;;;;;;;;;;18.47;27.13;97212.66;6373796;27;19927;-64
2022/04/18 12:37:25;;;;;;;;;;;;;;;18.93;26.82;97214.59;6374167;27;19927;-65
2022/04/18 12:40:38;;;;;;;;;;;;;;;19.53;26.41;97206.25;6373817;27;19929;-65
2022/04/18 12:43:41;;;;;;;;;;;;;;;20.46;25.53;97198.97;6374895;27;19923;-65
2022/04/18 12:46:44;;;;;;;;;;;;;;;20.98;24.78;97196.41;6374097;27;19919;-65
2022/04/18 12:50:06;;;;;;;;;;;;;;;20.68;25.27;97196.84;6374787;27;19923;-65
2022/04/18 12:53:08;;;;;;;;;;;;;;;20.11;25.94;97197.13;6374239;27;19923;-64
2022/04/18 12:56:10;;;;;;;;;;;;;;;19.64;26.68;97192.72;6373474;27;19930;-65
2022/04/18 12:59:13;;;;;;;;;;;;;;;19.32;27.80;97198.50;6374042;27;19919;-65
2022/04/18 13:02:20;;;;;;;;;;;;;;;19.18;27.38;97197.13;6374480;27;19923;-65
2022/04/18 13:05:24;;;;;;;;;;;;;;;19.17;27.10;97187.47;6374081;27;19923;-66
2022/04/18 13:08:27;;;;;;;;;;;;;;;19.50;26.67;97190.53;6374434;27;19939;-67
2022/04/18 13:11:41;;;;;;;;;;;;;;;19.69;26.41;97195.81;6374210;27;19927;-65
2022/04/18 13:14:59;;;;;;;;;;;;;;;19.73;26.46;97186.56;6373196;27;20432;-66
2022/04/18 13:18:04;;;;;;;;;;;;;;;19.55;26.66;97182.94;6373091;27;19923;-65
2022/04/18 13:21:05;;;;;;;;;;;;;;;19.22;27.16;97177.19;6372907;27;19924;-66
2022/04/18 13:24:09;;;;;;;;;;;;;;;19.11;27.35;97179.19;6373752;27;19927;-65
2022/04/18 13:27:26;;;;;;;;;;;;;;;18.83;27.46;97169.31;6372300;27;19924;-65
2022/04/18 13:30:38;;;;;;;;;;;;;;;18.98;27.41;97168.84;6373607;27;19924;-65
2022/04/18 13:33:40;;;;;;;;;;;;;;;19.26;26.94;97165.25;6372816;27;19923;-66
2022/04/18 13:36:41;;;;;;;;;;;;;;;19.53;26.72;97174.22;6372808;27;19923;-66
2022/04/18 13:39:47;;;;;;;;;;;;;;;19.37;26.36;97174.88;6372607;27;19923;-65
2022/04/18 13:42:51;;;;;;;;;;;;;;;19.31;26.58;97185.31;6354408;27;20392;-65
2022/04/18 13:45:52;;;;;;;;;;;;;;;19.25;26.78;97176.91;6372620;27;19924;-65
2022/04/18 13:48:53;;;;;;;;;;;;;;;18.98;27.05;97172.34;6372378;27;19927;-66
2022/04/18 13:51:57;;;;;;;;;;;;;;;18.73;27.32;97171.09;6373395;27;19923;-65
2022/04/18 13:54:58;;;;;;;;;;;;;;;18.56;27.50;97180.66;6372713;27;19923;-65
2022/04/18 13:58:02;;;;;;;;;;;;;;;18.40;28.00;97175.94;6372974;27;19927;-66
2022/04/18 14:01:06;;;;;;;;;;;;;;;18.24;27.93;97165.00;6372962;27;19923;-65
2022/04/18 14:04:10;;;;;;;;;;;;;;;18.08;28.14;97167.34;6372668;27;20413;-66
2022/04/18 14:07:13;;;;;;;;;;;;;;;17.97;28.66;97172.81;6371814;27;19941;-65
2022/04/18 14:10:15;;;;;;;;;;;;;;;18.02;27.69;97166.09;6371680;27;20215;-65
2022/04/18 14:13:16;;;;;;;;;;;;;;;18.12;27.96;97166.13;6371919;27;19964;-66
2022/04/18 14:23:01;;;;;;;;;;;;;;;17.94;28.69;97171.25;6371658;27;20392;-65
2022/04/18 14:26:05;;;;;;;;;;;;;;;17.81;28.58;97176.84;6371670;27;19923;-65
2022/04/18 14:29:11;;;;;;;;;;;;;;;17.77;28.53;97183.38;6370720;27;19924;-65
2022/04/18 14:32:12;;;;;;;;;;;;;;;17.69;28.53;97180.56;6371273;27;19931;-65
2022/04/18 14:35:14;;;;;;;;;;;;;;;17.61;29.04;97183.09;6370691;27;20378;-66
2022/04/18 14:38:15;;;;;;;;;;;;;;;17.56;29.39;97185.31;6370723;27;19930;-67
2022/04/18 14:41:17;;;;;;;;;;;;;;;17.45;28.91;97184.44;6353082;27;19927;-66
2022/04/18 14:44:18;;;;;;;;;;;;;;;17.39;28.85;97184.97;6370709;27;19923;-65
2022/04/18 14:47:23;;;;;;;;;;;;;;;17.29;29.38;97178.75;6371528;27;19923;-64
2022/04/18 14:50:24;;;;;;;;;;;;;;;17.19;28.99;97185.88;6371139;27;19923;-66
2022/04/18 14:53:26;;;;;;;;;;;;;;;17.20;29.24;97190.19;6371148;27;20396;-67
2022/04/18 14:56:32;;;;;;;;;;;;;;;17.10;29.58;97189.28;6370879;27;19964;-65
2022/04/18 14:59:37;;;;;;;;;;;;;;;16.93;29.88;97188.97;6371740;27;19923;-66
2022/04/18 15:02:40;;;;;;;;;;;;;;;16.82;29.88;97184.56;6370735;27;19929;-65
2022/04/18 15:05:43;;;;;;;;;;;;;;;16.77;30.14;97185.91;6370480;27;20424;-66
2022/04/18 15:08:47;;;;;;;;;;;;;;;16.68;30.36;97191.97;6370619;27;20307;-66
2022/04/18 15:11:51;;;;;;;;;;;;;;;16.64;30.74;97198.50;6371465;27;19924;-66
2022/04/18 15:14:52;;;;;;;;;;;;;;;16.58;31.48;97198.03;6371059;27;20410;-66
2022/04/18 15:17:56;;;;;;;;;;;;;;;16.44;32.16;97203.69;6372443;27;19924;-65
2022/04/18 15:20:57;;;;;;;;;;;;;;;16.41;32.67;97198.63;6371044;28;19923;-65
2022/04/18 15:24:03;;;;;;;;;;;;;;;16.29;33.40;97207.63;6371740;28;19923;-65
2022/04/18 15:27:04;;;;;;;;;;;;;;;16.16;33.74;97205.13;6371414;28;19926;-65
2022/04/18 15:33:32;;;;;;;;;;;;;;;15.93;33.61;97209.66;6371477;28;19919;-67
2022/04/18 15:36:34;;;;;;;;;;;;;;;15.78;33.34;97218.88;6371331;28;19923;-65
2022/04/18 15:39:35;;;;;;;;;;;;;;;15.70;33.55;97225.63;6371185;28;19959;-65
2022/04/18 15:42:39;;;;;;;;;;;;;;;15.73;34.14;97229.84;6371031;28;19923;-65
2022/04/18 15:45:43;;;;;;;;;;;;;;;15.45;34.35;97233.81;6370709;28;19930;-65
2022/04/18 15:48:48;;;;;;;;;;;;;;;15.33;34.74;97238.25;6371404;27;19923;-65
2022/04/18 15:51:52;;;;;;;;;;;;;;;14.95;35.05;97239.44;6375455;27;20289;-66
2022/04/18 15:54:56;;;;;;;;;;;;;;;14.60;35.31;97247.41;6376169;27;19924;-65
2022/04/18 15:57:57;;;;;;;;;;;;;;;14.86;36.19;97249.88;6374999;27;19923;-65
2022/04/18 16:01:01;;;;;;;;;;;;;;;14.50;36.26;97246.38;6375365;27;19931;-66
2022/04/18 16:04:02;;;;;;;;;;;;;;;14.22;36.29;97251.06;6375843;27;19923;-64
2022/04/18 16:07:05;;;;;;;;;;;;;;;14.01;36.49;97255.28;6374757;27;19927;-66
2022/04/18 16:10:07;;;;;;;;;;;;;;;13.82;36.64;97259.25;6375608;27;19929;-65
2022/04/18 16:13:08;;;;;;;;;;;;;;;13.69;36.80;97263.72;6375535;27;19965;-65
2022/04/18 16:16:11;;;;;;;;;;;;;;;13.56;36.81;97262.91;6375073;27;19923;-65
2022/04/18 16:19:17;;;;;;;;;;;;;;;13.37;37.34;97263.38;6375740;27;19943;-65
2022/04/18 16:22:21;;;;;;;;;;;;;;;13.19;38.22;97265.44;6375158;27;19930;-65
2022/04/18 16:25:25;;;;;;;;;;;;;;;13.07;37.63;97255.72;6375248;27;20400;-65
2022/04/18 16:28:28;;;;;;;;;;;;;;;12.95;37.34;97268.81;6375010;27;19919;-65
2022/04/18 16:34:52;;;;;;;;;;;;;;;12.73;37.94;97268.56;6374536;27;19919;-68